Time;durP1;ratioP1;P1;durP2;ratioP2;P2;SDS_P1;SDS_P2;PMS_P1;PMS_P2;Temp;Humidity;BMP_temperature;BMP_pressure;BME280_temperature;BME280_humidity;BME280_pressure;Samples;Min_cycle;Max_cycle;Signal;HPM_P1;HPM_P2
2021/08/30 00:01:53;;;;;;;2.42;1.60;;;14.40;70.30;;;;;;5053935;28;20104;-75
2021/08/30 00:04:19;;;;;;;2.58;1.90;;;14.40;70.40;;;;;;5053765;28;20033;-75
2021/08/30 00:06:45;;;;;;;9.85;1.77;;;14.30;70.40;;;;;;5054020;28;20039;-75
2021/08/30 00:09:12;;;;;;;2.08;1.60;;;14.30;70.50;;;;;;5053773;28;20025;-74
2021/08/30 00:11:38;;;;;;;2.25;2.00;;;14.30;70.60;;;;;;5052290;28;20032;-75
2021/08/30 00:14:04;;;;;;;3.67;1.60;;;14.30;70.60;;;;;;5053631;28;20096;-76
2021/08/30 00:16:30;;;;;;;6.88;2.20;;;14.30;70.60;;;;;;5035752;28;20029;-74
2021/08/30 00:18:57;;;;;;;2.58;2.10;;;14.20;70.60;;;;;;5053324;28;20021;-75
2021/08/30 00:21:23;;;;;;;2.85;2.00;;;14.20;70.60;;;;;;5042183;28;20492;-74
2021/08/30 00:23:49;;;;;;;3.53;2.40;;;14.20;70.60;;;;;;5053534;28;20032;-74
2021/08/30 00:26:15;;;;;;;5.70;2.00;;;14.20;70.50;;;;;;5053246;28;20029;-74
2021/08/30 00:28:41;;;;;;;2.92;2.08;;;14.20;70.60;;;;;;5050633;28;20545;-75
2021/08/30 00:31:07;;;;;;;3.28;2.03;;;14.10;70.70;;;;;;5037026;28;20128;-75
2021/08/30 00:33:33;;;;;;;4.32;1.92;;;14.10;70.70;;;;;;5050098;28;20128;-74
2021/08/30 00:35:58;;;;;;;3.08;2.05;;;14.10;70.70;;;;;;5053063;28;20028;-74
2021/08/30 00:38:25;;;;;;;16.05;2.97;;;14.10;70.80;;;;;;5035652;28;20025;-74
2021/08/30 00:40:51;;;;;;;2.08;1.88;;;14.10;71.20;;;;;;5053097;28;20032;-74
2021/08/30 00:43:16;;;;;;;11.88;2.60;;;14.10;71.50;;;;;;5053440;28;20386;-74
2021/08/30 00:45:42;;;;;;;2.55;2.10;;;14.10;71.80;;;;;;5053119;28;20052;-74
2021/08/30 00:48:08;;;;;;;2.17;1.98;;;14.10;71.90;;;;;;5036430;28;20036;-74
2021/08/30 00:50:34;;;;;;;2.70;1.98;;;14.10;71.70;;;;;;5053016;28;20033;-74
2021/08/30 00:53:01;;;;;;;2.97;1.92;;;14.10;71.60;;;;;;5031631;28;20068;-74
2021/08/30 00:55:27;;;;;;;2.10;1.65;;;14.10;71.40;;;;;;5035292;28;20029;-74
2021/08/30 00:57:53;;;;;;;3.35;2.05;;;14.10;71.20;;;;;;5052893;28;20107;-75
2021/08/30 01:00:19;;;;;;;4.78;1.73;;;14.10;71.10;;;;;;5052582;28;20359;-75
2021/08/30 01:02:46;;;;;;;2.90;2.10;;;14.00;71.10;;;;;;5052720;28;20435;-74
2021/08/30 01:05:15;;;;;;;3.42;2.15;;;14.00;71.40;;;;;;5052826;28;20052;-74
2021/08/30 01:08:15;;;;;;;9.20;1.95;;;14.00;71.50;;;;;;5052550;28;20033;-74
2021/08/30 01:10:48;;;;;;;3.63;2.15;;;14.00;71.60;;;;;;5052706;28;20501;-74
2021/08/30 01:14:01;;;;;;;2.63;2.00;;;14.00;71.40;;;;;;5052623;28;20028;-74
2021/08/30 01:16:29;;;;;;;3.85;2.28;;;14.00;71.30;;;;;;5036165;28;20430;-74
2021/08/30 01:18:59;;;;;;;10.98;2.10;;;14.00;71.00;;;;;;5034484;28;20021;-74
2021/08/30 01:21:31;;;;;;;6.72;2.30;;;14.00;71.00;;;;;;5034443;28;20163;-75
2021/08/30 01:24:13;;;;;;;5.25;2.28;;;14.00;71.10;;;;;;5052080;28;20147;-74
2021/08/30 01:26:49;;;;;;;3.45;2.25;;;13.90;71.00;;;;;;5052076;28;20505;-75
2021/08/30 01:29:17;;;;;;;2.25;2.03;;;13.90;71.00;;;;;;5052176;28;20320;-74
2021/08/30 01:31:56;;;;;;;4.43;2.38;;;13.90;71.00;;;;;;5051363;28;20102;-75
2021/08/30 01:34:24;;;;;;;2.80;2.08;;;13.90;71.40;;;;;;5034202;28;20033;-75
2021/08/30 01:36:51;;;;;;;4.07;2.15;;;13.90;71.60;;;;;;5034669;28;20359;-74
2021/08/30 01:39:17;;;;;;;10.63;2.15;;;13.90;71.80;;;;;;5051947;28;20175;-74
2021/08/30 01:41:45;;;;;;;2.03;1.75;;;13.90;72.10;;;;;;5052088;28;20465;-75
2021/08/30 01:44:12;;;;;;;7.35;2.45;;;13.90;72.20;;;;;;5034936;28;20040;-75
2021/08/30 01:46:39;;;;;;;2.10;1.80;;;14.00;72.50;;;;;;5051882;28;20025;-74
2021/08/30 01:49:08;;;;;;;5.20;2.13;;;14.00;72.30;;;;;;5052707;28;20028;-74
2021/08/30 01:51:35;;;;;;;3.10;2.42;;;14.00;72.00;;;;;;5043623;28;20449;-74
2021/08/30 01:54:01;;;;;;;3.13;2.67;;;14.10;71.90;;;;;;5050631;28;20033;-75
2021/08/30 01:56:31;;;;;;;5.68;3.00;;;14.10;71.70;;;;;;5051400;28;20087;-74
2021/08/30 02:01:43;;;;;;;6.25;3.80;;;14.00;71.40;;;;;;5051596;28;20036;-74
2021/08/30 02:04:09;;;;;;;5.63;4.18;;;14.00;71.30;;;;;;5048540;28;20021;-74
2021/08/30 02:06:35;;;;;;;4.40;3.42;;;14.00;71.30;;;;;;5050714;28;20017;-74
2021/08/30 02:09:03;;;;;;;4.78;3.63;;;14.00;71.30;;;;;;5051763;28;20070;-74
2021/08/30 02:11:35;;;;;;;6.90;3.67;;;13.90;71.30;;;;;;5051408;28;20040;-75
2021/08/30 02:14:03;;;;;;;6.30;4.90;;;13.90;71.40;;;;;;5051632;28;20418;-74
2021/08/30 02:16:30;;;;;;;6.32;3.72;;;13.90;71.60;;;;;;5050941;28;20112;-75
2021/08/30 02:19:08;;;;;;;5.80;4.32;;;13.90;71.70;;;;;;5051857;28;20550;-75
2021/08/30 02:21:53;;;;;;;5.80;3.97;;;13.90;71.70;;;;;;5051580;28;20029;-75
2021/08/30 02:24:44;;;;;;;10.80;3.55;;;13.90;71.70;;;;;;5032692;28;20546;-74
2021/08/30 02:27:25;;;;;;;5.22;3.85;;;13.90;71.80;;;;;;5050185;28;20036;-75
2021/08/30 02:30:10;;;;;;;8.05;3.97;;;13.80;71.80;;;;;;5051385;28;20037;-75
2021/08/30 02:32:37;;;;;;;4.97;4.28;;;13.90;71.90;;;;;;5051183;28;20044;-75
2021/08/30 02:35:06;;;;;;;8.57;4.40;;;13.80;72.00;;;;;;5051356;28;20021;-74
2021/08/30 02:37:36;;;;;;;4.90;3.95;;;13.90;72.10;;;;;;5044717;28;20017;-75
2021/08/30 02:40:04;;;;;;;5.35;4.63;;;13.90;72.20;;;;;;5051748;28;20021;-74
2021/08/30 02:42:33;;;;;;;4.82;4.00;;;13.90;72.10;;;;;;5053923;28;20025;-75
2021/08/30 02:45:00;;;;;;;8.43;3.70;;;13.90;72.00;;;;;;5037550;28;20040;-74
2021/08/30 02:47:27;;;;;;;4.80;2.80;;;13.90;71.80;;;;;;5054834;28;20025;-74
2021/08/30 02:49:54;;;;;;;3.72;2.80;;;13.90;71.80;;;;;;5054148;28;20033;-74
2021/08/30 02:52:23;;;;;;;6.28;2.83;;;13.80;71.70;;;;;;5054967;28;20433;-75
2021/08/30 02:54:51;;;;;;;4.47;3.70;;;13.80;71.60;;;;;;5055698;28;20028;-74
2021/08/30 02:57:18;;;;;;;4.72;3.95;;;13.80;71.60;;;;;;5054683;28;20028;-75
2021/08/30 02:59:45;;;;;;;3.70;3.40;;;13.80;71.60;;;;;;5055223;28;20462;-74
2021/08/30 03:02:12;;;;;;;4.65;3.55;;;13.80;71.50;;;;;;5054846;28;20033;-74
2021/08/30 03:04:39;;;;;;;3.92;3.30;;;13.80;71.60;;;;;;5037031;28;20494;-74
2021/08/30 03:07:05;;;;;;;4.07;3.00;;;13.80;71.70;;;;;;5054850;28;20028;-75
2021/08/30 03:09:31;;;;;;;4.05;3.20;;;13.70;71.60;;;;;;5054834;28;20033;-74
2021/08/30 03:11:59;;;;;;;4.68;3.38;;;13.70;71.70;;;;;;5036626;28;20075;-75
2021/08/30 03:14:26;;;;;;;5.00;3.60;;;13.70;71.90;;;;;;5054777;28;20028;-74
2021/08/30 03:17:01;;;;;;;5.35;3.95;;;13.70;72.10;;;;;;5054747;28;20079;-74
2021/08/30 03:19:29;;;;;;;4.13;3.15;;;13.80;72.50;;;;;;5054641;28;20331;-74
2021/08/30 03:21:55;;;;;;;5.45;3.35;;;13.80;72.80;;;;;;5036836;28;20033;-75
2021/08/30 03:24:22;;;;;;;5.05;3.65;;;13.80;73.00;;;;;;5035007;28;20495;-75
2021/08/30 03:26:50;;;;;;;3.75;3.30;;;13.90;73.20;;;;;;5054134;28;20126;-75
2021/08/30 03:29:20;;;;;;;4.60;2.88;;;14.00;73.30;;;;;;5054006;28;20128;-74
2021/08/30 03:31:49;;;;;;;3.88;3.00;;;14.10;73.40;;;;;;5054296;28;20047;-74
2021/08/30 03:34:16;;;;;;;6.72;3.20;;;14.10;73.30;;;;;;5054054;28;20035;-74
2021/08/30 03:36:43;;;;;;;4.10;3.30;;;14.20;73.20;;;;;;5054417;28;20020;-75
2021/08/30 03:39:09;;;;;;;7.38;3.97;;;14.30;73.00;;;;;;5054206;28;20021;-75
2021/08/30 03:41:36;;;;;;;9.18;3.97;;;14.30;72.60;;;;;;5053954;28;20017;-74
2021/08/30 03:44:03;;;;;;;3.65;2.90;;;14.40;72.30;;;;;;5054208;28;20021;-74
2021/08/30 03:46:29;;;;;;;3.90;3.08;;;14.40;72.20;;;;;;5054777;28;20025;-75
2021/08/30 03:48:56;;;;;;;3.42;2.92;;;14.50;72.30;;;;;;5054096;28;20025;-75
2021/08/30 03:51:23;;;;;;;3.95;2.85;;;14.50;72.20;;;;;;5035915;28;20025;-75
2021/08/30 03:53:50;;;;;;;3.50;2.63;;;14.50;72.30;;;;;;5047941;28;20379;-74
2021/08/30 03:56:17;;;;;;;4.72;2.85;;;14.60;72.30;;;;;;5048677;28;20025;-75
2021/08/30 03:58:45;;;;;;;3.67;2.90;;;14.60;72.30;;;;;;5054131;28;20092;-75
2021/08/30 04:01:14;;;;;;;4.47;3.58;;;14.60;72.20;;;;;;5053526;28;20036;-75
2021/08/30 04:03:43;;;;;;;4.50;3.35;;;14.70;72.20;;;;;;5053821;28;20029;-75
2021/08/30 04:06:11;;;;;;;4.35;3.22;;;14.70;72.10;;;;;;5053818;28;20573;-75
2021/08/30 04:08:38;;;;;;;4.05;3.25;;;14.70;72.10;;;;;;5053664;28;20025;-75
2021/08/30 04:11:05;;;;;;;5.25;3.67;;;14.80;72.30;;;;;;5035603;28;20029;-75
2021/08/30 04:13:31;;;;;;;7.93;3.67;;;14.80;72.30;;;;;;5053464;28;20032;-74
2021/08/30 04:15:57;;;;;;;10.43;4.82;;;14.90;72.30;;;;;;5053564;28;20021;-74
2021/08/30 04:18:23;;;;;;;7.05;4.43;;;14.90;72.30;;;;;;5053528;28;20017;-74
2021/08/30 04:20:49;;;;;;;6.25;3.65;;;15.00;72.10;;;;;;5053210;28;20025;-74
2021/08/30 04:23:15;;;;;;;7.13;4.75;;;15.00;72.00;;;;;;5053232;28;20484;-75
2021/08/30 04:25:41;;;;;;;4.78;3.60;;;15.10;71.80;;;;;;5053304;28;20554;-75
2021/08/30 04:28:06;;;;;;;5.22;3.53;;;15.10;71.70;;;;;;5050544;28;20029;-75
2021/08/30 04:30:34;;;;;;;12.23;4.28;;;15.10;71.80;;;;;;5052795;28;20041;-75
2021/08/30 04:33:00;;;;;;;8.23;4.80;;;15.20;71.80;;;;;;5052671;28;20061;-75
2021/08/30 04:35:26;;;;;;;7.28;4.78;;;15.20;71.90;;;;;;5052618;28;20490;-75
2021/08/30 04:37:52;;;;;;;13.57;5.40;;;15.30;72.00;;;;;;5052513;28;20482;-75
2021/08/30 04:40:17;;;;;;;9.10;5.75;;;15.30;72.00;;;;;;5053380;28;20024;-76
2021/08/30 04:42:43;;;;;;;12.95;6.80;;;15.40;71.70;;;;;;5053091;28;20037;-76
2021/08/30 04:45:10;;;;;;;12.00;6.72;;;15.50;71.30;;;;;;5052833;28;20021;-75
2021/08/30 04:47:36;;;;;;;15.32;7.85;;;15.50;71.00;;;;;;5052866;28;20025;-75
2021/08/30 04:50:03;;;;;;;13.25;7.35;;;15.50;70.70;;;;;;5053039;28;20133;-75
2021/08/30 04:52:29;;;;;;;11.65;6.93;;;15.60;70.70;;;;;;5052646;28;20079;-75
2021/08/30 04:54:55;;;;;;;18.73;7.47;;;15.60;70.60;;;;;;5051284;28;20104;-75
2021/08/30 04:57:21;;;;;;;15.10;7.65;;;15.70;70.30;;;;;;5052536;28;20029;-75
2021/08/30 04:59:47;;;;;;;36.38;9.35;;;15.70;70.10;;;;;;5060901;28;20441;-75
2021/08/30 05:02:12;;;;;;;17.88;8.38;;;15.70;70.10;;;;;;5050929;28;20072;-75
2021/08/30 05:04:38;;;;;;;11.90;6.88;;;15.70;70.20;;;;;;5050567;28;20033;-75
2021/08/30 05:07:04;;;;;;;17.73;8.02;;;15.80;70.10;;;;;;5065278;28;20033;-75
2021/08/30 05:09:30;;;;;;;13.85;7.63;;;15.80;70.30;;;;;;5049317;28;20056;-75
2021/08/30 05:11:56;;;;;;;10.70;6.45;;;15.90;70.70;;;;;;5052692;28;20551;-76
2021/08/30 05:14:21;;;;;;;14.80;6.72;;;15.90;70.60;;;;;;5052676;28;20044;-75
2021/08/30 05:16:47;;;;;;;12.43;6.78;;;16.00;70.40;;;;;;5051582;28;20025;-75
2021/08/30 05:19:13;;;;;;;13.30;6.07;;;16.10;70.00;;;;;;5050592;28;20033;-75
2021/08/30 05:21:39;;;;;;;8.68;5.47;;;16.10;69.70;;;;;;5051514;28;20031;-75
2021/08/30 05:24:09;;;;;;;8.60;4.97;;;16.20;70.20;;;;;;5051982;28;20025;-75
2021/08/30 05:26:36;;;;;;;11.48;6.82;;;16.30;70.50;;;;;;5043353;28;20025;-76
2021/08/30 05:29:03;;;;;;;13.10;6.28;;;16.30;70.10;;;;;;5050398;28;20398;-75
2021/08/30 05:31:29;;;;;;;11.98;6.57;;;16.40;70.10;;;;;;5052108;28;20021;-76
2021/08/30 05:33:58;;;;;;;12.77;6.55;;;16.50;70.30;;;;;;5039853;28;20083;-75
2021/08/30 05:36:24;;;;;;;11.90;6.47;;;16.60;70.50;;;;;;5052571;28;20021;-75
2021/08/30 05:38:51;;;;;;;13.68;7.07;;;16.60;70.10;;;;;;5052798;28;20024;-76
2021/08/30 05:41:17;;;;;;;11.20;5.80;;;16.70;69.60;;;;;;5051430;28;20023;-77
2021/08/30 05:43:43;;;;;;;10.80;5.75;;;16.70;69.30;;;;;;5052033;28;20024;-76
2021/08/30 05:46:15;;;;;;;11.35;6.35;;;16.80;69.50;;;;;;5034807;28;20079;-76
2021/08/30 05:48:46;;;;;;;16.08;8.10;;;16.80;69.40;;;;;;5053074;28;20028;-76
2021/08/30 05:51:12;;;;;;;12.98;6.85;;;16.90;69.00;;;;;;5040545;28;20056;-76
2021/08/30 05:53:38;;;;;;;16.40;7.72;;;16.90;69.30;;;;;;5033420;28;20033;-77
2021/08/30 05:56:05;;;;;;;28.38;12.63;;;17.00;69.60;;;;;;5052096;28;20378;-77
2021/08/30 05:58:31;;;;;;;30.40;12.55;;;17.00;69.20;;;;;;5040330;28;20025;-76
2021/08/30 06:00:57;;;;;;;42.33;16.00;;;17.10;69.40;;;;;;5048512;28;20029;-76
2021/08/30 06:03:23;;;;;;;49.55;17.40;;;17.10;69.20;;;;;;5052192;28;20033;-76
2021/08/30 06:05:48;;;;;;;50.05;18.90;;;17.10;69.00;;;;;;5052721;28;20397;-76
2021/08/30 06:08:14;;;;;;;64.80;24.08;;;17.10;68.90;;;;;;5035446;28;20021;-76
2021/08/30 06:10:40;;;;;;;63.05;23.15;;;17.20;68.90;;;;;;5052588;28;20025;-76
2021/08/30 06:13:06;;;;;;;69.97;25.58;;;17.20;69.00;;;;;;5051325;28;20087;-76
2021/08/30 06:15:32;;;;;;;90.28;31.10;;;17.20;69.00;;;;;;5055321;28;20024;-76
2021/08/30 06:17:57;;;;;;;102.28;36.08;;;17.30;68.70;;;;;;5063815;28;20032;-77
2021/08/30 06:20:23;;;;;;;131.98;44.75;;;17.30;68.40;;;;;;5059769;28;20378;-78
2021/08/30 06:22:49;;;;;;;137.38;45.95;;;17.30;68.30;;;;;;5059633;28;20013;-77
2021/08/30 06:25:15;;;;;;;124.72;42.33;;;17.30;68.20;;;;;;5059138;28;20104;-77
2021/08/30 06:27:41;;;;;;;141.27;46.03;;;17.40;68.70;;;;;;5059397;28;20029;-76
2021/08/30 06:30:07;;;;;;;138.48;47.85;;;17.40;68.50;;;;;;5059278;28;20513;-76
2021/08/30 06:32:33;;;;;;;144.15;47.30;;;17.40;68.20;;;;;;5039570;28;20108;-76
2021/08/30 06:34:58;;;;;;;134.32;45.50;;;17.50;68.50;;;;;;5058272;28;20104;-76
2021/08/30 06:37:24;;;;;;;124.43;39.22;;;17.50;68.60;;;;;;5059137;28;20056;-76
2021/08/30 06:39:50;;;;;;;133.82;39.97;;;17.50;68.40;;;;;;5041486;28;20036;-76
2021/08/30 06:42:16;;;;;;;124.55;41.85;;;17.60;68.40;;;;;;5043138;28;20075;-76
2021/08/30 06:44:41;;;;;;;106.50;36.97;;;17.60;69.60;;;;;;5040997;28;20032;-76
2021/08/30 06:47:08;;;;;;;91.78;30.65;;;17.70;69.00;;;;;;5059129;28;20053;-76
2021/08/30 06:49:33;;;;;;;81.05;27.13;;;17.70;68.30;;;;;;5058761;28;20025;-76
2021/08/30 06:51:59;;;;;;;62.95;23.02;;;17.80;67.90;;;;;;5058815;28;20066;-76
2021/08/30 06:54:25;;;;;;;61.75;22.52;;;17.80;67.50;;;;;;5058835;28;20025;-76
2021/08/30 06:56:51;;;;;;;36.78;14.07;;;17.90;67.40;;;;;;5058908;28;20024;-76
2021/08/30 06:59:16;;;;;;;33.67;13.25;;;17.90;67.50;;;;;;5058903;28;20096;-77
2021/08/30 07:01:42;;;;;;;38.28;12.75;;;18.00;67.90;;;;;;5058607;28;20082;-76
2021/08/30 07:04:08;;;;;;;50.03;16.85;;;18.00;68.10;;;;;;5058695;28;20047;-77
2021/08/30 07:06:34;;;;;;;54.50;17.50;;;18.10;68.00;;;;;;5058778;28;20067;-78
2021/08/30 07:09:02;;;;;;;45.78;14.73;;;18.20;67.50;;;;;;5040719;28;20438;-77
2021/08/30 07:11:31;;;;;;;41.65;14.32;;;18.30;67.90;;;;;;5058693;28;20023;-77
2021/08/30 07:13:58;;;;;;;56.95;20.85;;;18.40;66.50;;;;;;5058896;28;20490;-77
2021/08/30 07:16:24;;;;;;;69.95;23.75;;;18.50;67.30;;;;;;5058289;28;20032;-77
2021/08/30 07:18:49;;;;;;;72.95;24.63;;;18.60;67.60;;;;;;5058575;28;20025;-77
2021/08/30 07:21:15;;;;;;;66.38;22.90;;;18.70;66.90;;;;;;5058123;28;20021;-77
2021/08/30 07:23:42;;;;;;;72.63;21.95;;;18.80;66.30;;;;;;5058629;28;20017;-77
2021/08/30 07:26:08;;;;;;;64.32;20.40;;;18.80;64.60;;;;;;5058522;28;20424;-77
2021/08/30 07:28:33;;;;;;;64.93;21.45;;;18.80;64.90;;;;;;5055852;28;20021;-77
2021/08/30 07:30:59;;;;;;;59.00;21.45;;;18.90;64.90;;;;;;5055295;28;20128;-76
2021/08/30 07:33:25;;;;;;;57.38;20.60;;;18.90;65.50;;;;;;5036853;28;20086;-77
2021/08/30 07:35:51;;;;;;;54.70;20.05;;;19.00;66.00;;;;;;5055411;28;20021;-76
2021/08/30 07:38:17;;;;;;;48.67;18.45;;;19.10;66.10;;;;;;5054981;28;20043;-78
2021/08/30 07:40:43;;;;;;;56.33;18.27;;;19.20;66.30;;;;;;5037245;28;20366;-77
2021/08/30 07:43:09;;;;;;;52.80;18.02;;;19.40;65.90;;;;;;5039934;28;20035;-77
2021/08/30 07:45:34;;;;;;;50.00;16.15;;;19.50;66.00;;;;;;5054163;28;20029;-77
2021/08/30 07:48:00;;;;;;;49.42;14.52;;;19.60;65.30;;;;;;5054883;28;20043;-75
2021/08/30 07:50:26;;;;;;;50.42;15.35;;;19.80;65.60;;;;;;5037938;28;20176;-76
2021/08/30 07:52:52;;;;;;;46.53;14.68;;;19.90;64.30;;;;;;5052124;28;20104;-77
2021/08/30 07:55:19;;;;;;;41.75;15.25;;;20.00;64.00;;;;;;5047265;28;20045;-77
2021/08/30 07:57:44;;;;;;;39.25;13.85;;;20.00;62.10;;;;;;5051749;28;20040;-77
2021/08/30 08:00:12;;;;;;;43.67;14.50;;;20.10;63.60;;;;;;5044061;28;20104;-77
2021/08/30 08:02:38;;;;;;;39.33;14.43;;;20.10;63.50;;;;;;5036879;28;20024;-77
2021/08/30 08:05:04;;;;;;;38.75;13.68;;;20.20;63.90;;;;;;5054598;28;20021;-77
2021/08/30 08:07:30;;;;;;;40.33;12.68;;;20.20;63.20;;;;;;5058248;28;20086;-77
2021/08/30 08:09:56;;;;;;;32.08;12.45;;;20.20;63.40;;;;;;5054943;28;20017;-77
2021/08/30 08:12:22;;;;;;;34.67;12.57;;;20.30;63.30;;;;;;5049447;28;20478;-77
2021/08/30 08:14:48;;;;;;;39.40;13.35;;;20.40;62.20;;;;;;5054572;28;20088;-78
2021/08/30 08:17:14;;;;;;;33.63;12.85;;;20.50;60.80;;;;;;5054668;28;20029;-77
2021/08/30 08:19:39;;;;;;;32.20;12.38;;;20.50;60.00;;;;;;5054656;28;20466;-77
2021/08/30 08:22:05;;;;;;;44.33;13.30;;;20.50;60.50;;;;;;5054660;28;20025;-77
2021/08/30 08:24:32;;;;;;;33.47;12.60;;;20.60;61.00;;;;;;5050857;28;20425;-77
2021/08/30 08:26:59;;;;;;;32.13;12.40;;;20.60;60.10;;;;;;5054261;28;20029;-77
2021/08/30 08:29:24;;;;;;;29.30;12.75;;;20.60;59.50;;;;;;5054125;28;20036;-77
2021/08/30 08:31:50;;;;;;;28.73;12.25;;;20.60;59.20;;;;;;5048568;28;20033;-77
2021/08/30 08:34:16;;;;;;;30.10;12.82;;;20.60;59.80;;;;;;5052633;28;20046;-77
2021/08/30 08:36:42;;;;;;;32.38;13.90;;;20.60;58.80;;;;;;5060089;28;20024;-77
2021/08/30 08:39:08;;;;;;;33.25;13.68;;;20.60;59.20;;;;;;5047594;28;20363;-77
2021/08/30 08:41:36;;;;;;;27.65;11.95;;;20.60;59.90;;;;;;5037894;28;20029;-77
2021/08/30 08:44:06;;;;;;;26.30;12.40;;;20.60;60.30;;;;;;5053721;28;20466;-77
2021/08/30 08:46:34;;;;;;;29.52;12.57;;;20.70;61.00;;;;;;5049685;28;20032;-77
2021/08/30 08:49:00;;;;;;;33.03;12.55;;;20.70;59.90;;;;;;5053899;28;20501;-78
2021/08/30 08:51:26;;;;;;;28.40;12.07;;;20.80;59.40;;;;;;5053927;28;20052;-77
2021/08/30 08:53:52;;;;;;;18.88;11.05;;;20.90;58.70;;;;;;5053989;28;20472;-77
2021/08/30 08:56:25;;;;;;;21.30;11.85;;;21.00;58.30;;;;;;5053703;28;20421;-77
2021/08/30 08:58:51;;;;;;;32.90;11.33;;;21.10;59.50;;;;;;5035419;28;20501;-77
2021/08/30 09:01:27;;;;;;;28.92;12.20;;;21.10;57.60;;;;;;5055559;28;20029;-76
2021/08/30 09:03:57;;;;;;;21.55;10.05;;;21.20;57.00;;;;;;5039323;28;20021;-78
2021/08/30 09:06:46;;;;;;;17.23;8.75;;;21.10;57.50;;;;;;5052799;28;20157;-76
2021/08/30 09:09:16;;;;;;;21.98;9.68;;;21.20;56.70;;;;;;5053805;28;20014;-77
2021/08/30 09:11:51;;;;;;;22.83;9.32;;;21.20;57.40;;;;;;5053923;28;20100;-76
2021/08/30 09:14:19;;;;;;;21.95;8.05;;;21.20;57.60;;;;;;5052973;28;20119;-76
2021/08/30 09:16:47;;;;;;;24.55;8.40;;;21.20;57.50;;;;;;5053552;28;20031;-76
2021/08/30 09:19:16;;;;;;;19.52;8.70;;;21.30;58.70;;;;;;5053604;28;20020;-77
2021/08/30 09:21:47;;;;;;;19.35;7.28;;;21.30;57.90;;;;;;5054721;28;20482;-76
2021/08/30 09:24:15;;;;;;;11.73;7.35;;;21.40;57.80;;;;;;5035465;28;20044;-76
2021/08/30 09:26:49;;;;;;;15.80;6.22;;;21.40;57.80;;;;;;5053323;28;20021;-76
2021/08/30 09:29:20;;;;;;;13.82;7.43;;;21.50;58.60;;;;;;5052905;28;20095;-77
2021/08/30 09:32:07;;;;;;;11.55;5.80;;;21.60;58.20;;;;;;5053232;28;20025;-76
2021/08/30 09:34:42;;;;;;;13.98;7.07;;;21.70;58.20;;;;;;5037252;28;20045;-77
2021/08/30 09:37:38;;;;;;;10.32;5.70;;;21.80;57.40;;;;;;5051530;28;20391;-76
2021/08/30 09:40:07;;;;;;;10.80;6.22;;;21.80;57.90;;;;;;5051047;28;20478;-76
2021/08/30 09:42:33;;;;;;;11.98;5.97;;;21.90;57.20;;;;;;5037307;28;20095;-75
2021/08/30 09:45:28;;;;;;;12.75;5.72;;;21.90;57.90;;;;;;5052918;28;20016;-75
2021/08/30 09:47:58;;;;;;;11.70;6.13;;;22.10;58.40;;;;;;4994668;28;20056;-76
2021/08/30 09:50:32;;;;;;;11.55;5.53;;;22.20;56.90;;;;;;4991482;28;20447;-76
2021/08/30 09:53:00;;;;;;;9.30;5.55;;;22.30;56.80;;;;;;4991354;28;20030;-75
2021/08/30 09:55:27;;;;;;;10.07;5.22;;;22.30;57.00;;;;;;4991576;28;20077;-75
2021/08/30 09:57:54;;;;;;;8.23;4.32;;;22.40;57.20;;;;;;4991419;28;20041;-75
2021/08/30 10:00:21;;;;;;;10.50;4.60;;;22.50;57.50;;;;;;4987451;28;20030;-75
2021/08/30 10:02:52;;;;;;;12.35;5.35;;;22.60;55.70;;;;;;4995127;28;20065;-75
2021/08/30 10:05:19;;;;;;;10.25;4.45;;;22.70;55.50;;;;;;4991501;28;20038;-74
2021/08/30 10:07:46;;;;;;;5.72;3.70;;;22.70;54.40;;;;;;4991453;28;20026;-76
2021/08/30 10:10:17;;;;;;;4.97;2.45;;;22.80;55.20;;;;;;4994436;28;20427;-76
2021/08/30 10:12:43;;;;;;;5.53;2.78;;;22.80;53.60;;;;;;4975096;28;20478;-76
2021/08/30 10:15:12;;;;;;;9.13;2.58;;;22.90;54.70;;;;;;4983596;28;20023;-75
2021/08/30 10:17:47;;;;;;;8.07;3.05;;;22.90;52.30;;;;;;4991368;28;20391;-75
2021/08/30 10:20:22;;;;;;;10.40;3.05;;;22.90;52.90;;;;;;4990267;28;20022;-76
2021/08/30 10:22:57;;;;;;;4.47;2.70;;;23.00;54.50;;;;;;4962529;28;20030;-75
2021/08/30 10:25:24;;;;;;;5.40;2.40;;;23.00;53.40;;;;;;5050482;28;20091;-75
2021/08/30 10:27:59;;;;;;;3.90;2.28;;;23.10;54.80;;;;;;5052132;28;20124;-75
2021/08/30 10:30:26;;;;;;;6.10;3.00;;;23.10;54.60;;;;;;5058585;28;20048;-75
2021/08/30 10:32:58;;;;;;;3.55;2.00;;;23.20;54.20;;;;;;5052259;28;20032;-75
2021/08/30 10:35:26;;;;;;;2.97;2.00;;;23.30;55.70;;;;;;5051844;28;20082;-75
2021/08/30 10:38:00;;;;;;;3.42;2.40;;;23.40;55.40;;;;;;5052481;28;20116;-76
2021/08/30 10:40:32;;;;;;;5.18;2.50;;;23.60;54.50;;;;;;5052510;28;20131;-75
2021/08/30 10:43:10;;;;;;;4.93;2.45;;;23.60;53.50;;;;;;5034751;28;20029;-75
2021/08/30 10:45:39;;;;;;;6.28;2.42;;;23.70;52.60;;;;;;5057470;28;20029;-75
2021/08/30 10:48:13;;;;;;;3.75;2.38;;;23.70;52.80;;;;;;5051730;28;20104;-75
2021/08/30 10:50:48;;;;;;;4.20;2.28;;;23.80;53.20;;;;;;5056531;28;20036;-75
2021/08/30 10:53:19;;;;;;;5.10;2.35;;;23.80;52.40;;;;;;5023987;28;20033;-75
2021/08/30 10:55:52;;;;;;;4.38;1.90;;;23.70;51.20;;;;;;5051710;28;20021;-75
2021/08/30 10:58:24;;;;;;;2.30;1.77;;;23.70;51.00;;;;;;5041127;28;20129;-74
2021/08/30 11:00:53;;;;;;;2.05;1.48;;;23.60;50.60;;;;;;5052071;28;20025;-74
2021/08/30 11:03:30;;;;;;;2.30;1.70;;;23.50;50.40;;;;;;5051620;28;20068;-75
2021/08/30 11:06:14;;;;;;;2.30;1.90;;;23.40;51.50;;;;;;5041422;28;20022;-76
2021/08/30 11:08:41;;;;;;;4.13;1.42;;;23.40;51.80;;;;;;5051587;28;20021;-75
2021/08/30 11:11:17;;;;;;;3.15;1.70;;;23.30;51.10;;;;;;5053631;28;20029;-75
2021/08/30 11:14:04;;;;;;;2.30;1.83;;;23.20;51.50;;;;;;5054156;28;20043;-75
2021/08/30 11:16:33;;;;;;;2.03;1.60;;;23.10;51.20;;;;;;5044032;28;20029;-75
2021/08/30 11:19:11;;;;;;;3.33;1.80;;;23.00;51.70;;;;;;5055216;28;20040;-75
2021/08/30 11:21:46;;;;;;;4.85;1.50;;;22.90;52.40;;;;;;5050064;28;20013;-75
2021/08/30 11:24:20;;;;;;;2.50;1.55;;;22.80;50.80;;;;;;5053278;28;20052;-74
2021/08/30 11:26:46;;;;;;;2.65;1.40;;;22.70;50.20;;;;;;5054190;28;20032;-74
2021/08/30 11:29:12;;;;;;;3.53;1.27;;;22.60;50.80;;;;;;5054491;28;20053;-74
2021/08/30 11:31:41;;;;;;;1.95;1.52;;;22.50;51.40;;;;;;5055540;28;20360;-74
2021/08/30 11:34:25;;;;;;;1.65;1.20;;;22.50;52.30;;;;;;5045082;28;20075;-74
2021/08/30 11:36:52;;;;;;;1.55;1.10;;;22.50;53.10;;;;;;5054706;28;20561;-74
2021/08/30 11:39:19;;;;;;;1.75;1.23;;;22.60;54.00;;;;;;5054273;28;20021;-73
2021/08/30 11:41:50;;;;;;;1.25;1.08;;;22.60;52.90;;;;;;5054281;28;20423;-74
2021/08/30 11:44:15;;;;;;;2.90;1.40;;;22.70;52.30;;;;;;5054548;28;20024;-75
2021/08/30 11:46:50;;;;;;;6.70;1.50;;;22.70;51.50;;;;;;5036613;28;20489;-74
2021/08/30 11:49:17;;;;;;;1.80;1.52;;;22.70;50.70;;;;;;5054242;28;20044;-74
2021/08/30 11:51:46;;;;;;;1.35;1.10;;;22.70;51.60;;;;;;5053044;28;20056;-73
2021/08/30 11:54:17;;;;;;;2.67;1.30;;;22.60;51.30;;;;;;5054267;28;20147;-73
2021/08/30 11:56:54;;;;;;;2.60;1.20;;;22.60;51.40;;;;;;5054032;28;20539;-74
2021/08/30 11:59:34;;;;;;;0.90;0.85;;;22.60;51.80;;;;;;5054358;28;20094;-75
2021/08/30 12:02:01;;;;;;;1.80;1.13;;;22.70;52.00;;;;;;5053636;28;20033;-74
2021/08/30 12:04:31;;;;;;;1.75;1.15;;;22.80;52.50;;;;;;5053925;28;20051;-74
2021/08/30 12:07:00;;;;;;;0.80;0.80;;;22.80;50.90;;;;;;5053567;28;20488;-72
2021/08/30 12:09:39;;;;;;;0.82;0.73;;;22.90;52.50;;;;;;5042939;28;20025;-73
2021/08/30 12:12:22;;;;;;;1.55;0.82;;;22.90;52.00;;;;;;5054284;28;20013;-73
2021/08/30 12:15:01;;;;;;;1.02;0.63;;;23.00;52.00;;;;;;5053658;28;20063;-73
2021/08/30 12:17:32;;;;;;;0.93;0.52;;;23.00;51.70;;;;;;5053804;28;20096;-74
2021/08/30 12:20:09;;;;;;;0.75;0.70;;;23.00;51.70;;;;;;5054017;28;20021;-74
2021/08/30 12:22:45;;;;;;;0.85;0.70;;;23.00;51.50;;;;;;5034048;28;20104;-74
2021/08/30 12:25:33;;;;;;;2.10;0.70;;;23.00;50.70;;;;;;5016302;28;20025;-74
2021/08/30 12:27:59;;;;;;;0.90;0.65;;;23.10;51.20;;;;;;5046947;28;20025;-75
2021/08/30 12:30:28;;;;;;;0.98;0.70;;;23.20;49.60;;;;;;5052361;28;20076;-74
2021/08/30 12:32:56;;;;;;;3.38;0.80;;;23.20;47.50;;;;;;5052782;28;20025;-73
2021/08/30 12:35:25;;;;;;;1.92;0.60;;;23.20;49.20;;;;;;5053088;28;20060;-73
2021/08/30 12:37:53;;;;;;;0.55;0.55;;;23.20;49.00;;;;;;5050546;28;20029;-75
2021/08/30 12:40:20;;;;;;;0.60;0.60;;;23.20;48.30;;;;;;5056830;28;20103;-75
2021/08/30 12:42:46;;;;;;;1.23;0.50;;;23.30;49.50;;;;;;5043283;28;20253;-73
2021/08/30 12:45:12;;;;;;;3.20;0.65;;;23.30;47.80;;;;;;5052508;28;20025;-72
2021/08/30 12:47:38;;;;;;;0.60;0.40;;;23.40;48.50;;;;;;5049989;28;20482;-73
2021/08/30 12:50:04;;;;;;;0.65;0.52;;;23.30;46.90;;;;;;5053043;28;20025;-73
2021/08/30 12:52:30;;;;;;;1.92;0.50;;;23.30;48.00;;;;;;5052916;28;20029;-73